• Join FlightAware (Why Join?)
  • Login
  • US Flag 
01:35PM EDT


 

Airport Tracker/Info


-or-


 

Live Flight TrackerFlight Track Log ✈ N5329F ✈ 25-Apr-2012 ✈ KHAI - KMSV

Flight Track Log - Related Links

Times and Time Zones

All times are in EDT time to prevent confusion due to time zone crossing. See the N5329F flight status page for this flight to view local times or setup timezone preferences in your user account.

Time Position Orientation Groundspeed Altitude Reporting Facility
EDT Latitude Longitude Course Direction KTS MPH feet Rate Location/Type
03:55PM 42.2047 -82.2258 94° East 199 229 11,500  Level Cleveland Center
03:56PM 42.2014 -82.1611 95° East 199 229 11,600  Climbing Cleveland Center
03:57PM 42.1961 -82.0742 93° East 205 236 11,600  Level Cleveland Center
03:58PM 42.1931 -81.9983 92° East 199 229 11,600  Level Cleveland Center
03:59PM 42.1917 -81.9311 93° East 199 229 11,600  Level Cleveland Center
04:00PM 42.1883 -81.8553 93° East 199 229 11,600  Level Cleveland Center
04:01PM 42.1850 -81.7797 91° East 199 229 11,600  Level Cleveland Center
04:02PM 42.1839 -81.7039 94° East 199 229 11,600 -60 Level Cleveland Center
04:03PM 42.1803 -81.6311 94° East 199 229 11,500 -60 Descending Cleveland Center
04:04PM 42.1767 -81.5553 91° East 199 229 11,500  Level Cleveland Center
04:05PM 42.1753 -81.4742 94° East 199 229 11,500  Level Cleveland Center
04:06PM 42.1717 -81.3983 96° East 199 229 11,500  Level Cleveland Center
04:07PM 42.1661 -81.3256 92° East 199 229 11,500  Level Cleveland Center
04:08PM 42.1644 -81.2497 94° East 199 229 11,500  Level Cleveland Center
04:09PM 42.1606 -81.1742 94° East 199 229 11,500  Level Cleveland Center
04:10PM 42.1569 -81.0986 92° East 199 229 11,500  Level Cleveland Center
04:11PM 42.1550 -81.0200 94° East 199 229 11,500  Level Cleveland Center
04:12PM 42.1511 -80.9472 94° East 199 229 11,500  Level Cleveland Center
04:13PM 42.1472 -80.8800 94° East 199 229 11,500  Level Cleveland Center
04:14PM 42.1431 -80.8044 94° East 199 229 11,500  Level Cleveland Center
04:15PM 42.1392 -80.7258 92° East 199 229 11,500  Level Cleveland Center
04:16PM 42.1372 -80.6503 96° East 199 229 11,500  Level Cleveland Center
04:17PM 42.1308 -80.5719 92° East 199 229 11,500  Level Cleveland Center
04:18PM 42.1289 -80.4992 94° East 199 229 11,500  Level Cleveland Center
04:19PM 42.1244 -80.4181 94° East 199 229 11,500  Level Cleveland Center
04:20PM 42.1203 -80.3425 94° East 199 229 11,500  Level Cleveland Center
04:21PM 42.1158 -80.2642 90° East 199 229 11,500  Level Cleveland Center
04:22PM 42.1156 -80.1914 96° East 199 229 11,500  Level Cleveland Center
04:23PM 42.1092 -80.1131 95° East 199 229 11,500  Level Cleveland Center
04:24PM 42.1047 -80.0375 93° East 199 229 11,500  Level Cleveland Center
04:25PM 42.1022 -79.9619 95° East 199 229 11,500  Level Cleveland Center
04:26PM 42.0975 -79.8864 94° East 204 235 11,500  Level Cleveland Center
04:27PM 42.0928 -79.8053 93° East 204 235 11,500  Level Cleveland Center
04:28PM 42.0903 -79.7297 97° East 204 235 11,500  Level Cleveland Center
04:29PM 42.0833 -79.6572 93° East 199 229 11,500  Level Cleveland Center
04:30PM 42.0806 -79.5817 95° East 205 236 11,500  Level Cleveland Center
04:31PM 42.0758 -79.5089 95° East 205 236 11,500  Level Cleveland Center
04:32PM 42.0711 -79.4336 95° East 205 236 11,500  Level Cleveland Center
04:33PM 42.0661 -79.3553 95° East 200 230 11,500  Level Cleveland Center
04:34PM 42.0611 -79.2769 95° East 200 230 11,500  Level Cleveland Center
04:35PM 42.0558 -79.1961 93° East 200 230 11,500  Level Cleveland Center
04:36PM 42.0528 -79.1236 95° East 200 230 11,500  Level Cleveland Center
04:37PM 42.0478 -79.0481 95° East 200 230 11,500  Level Cleveland Center
04:38PM 42.0425 -78.9700 93° East 200 230 11,500  Level Cleveland Center
04:39PM 42.0394 -78.8944 95° East 200 230 11,500  Level Cleveland Center
04:40PM 42.0339 -78.8136 95° East 200 230 11,500  Level Cleveland Center
04:41PM 42.0286 -78.7383 95° East 200 230 11,500  Level Cleveland Center
04:42PM 42.0231 -78.6600 95° East 200 230 11,500  Level Cleveland Center
04:43PM 42.0175 -78.5819 95° East 200 230 11,500  Level Cleveland Center
04:44PM 42.0122 -78.5067 96° East 200 230 11,500  Level Cleveland Center
04:45PM 42.0067 -78.4314 96° East 200 230 11,500  Level Cleveland Center
04:46PM 42.0008 -78.3506 95° East 200 230 11,500  Level Cleveland Center
04:47PM 41.9953 -78.2725 92° East 200 230 11,500  Level Cleveland Center
04:48PM 41.9936 -78.1917 96° East 200 230 11,500  Level Cleveland Center
04:49PM 41.9878 -78.1164 96° East 200 230 11,500  Level Cleveland Center
04:50PM 41.9819 -78.0356 94° East 205 236 11,500 -120 Level Cleveland Center
04:51PM 41.9778 -77.9547 96° East 205 236 11,300 -240 Descending Cleveland Center
04:52PM 41.9664 -77.8169 98° East 220 253 11,000 -240 Descending New York Center
04:53PM 41.9586 -77.7381 93° East 220 253 10,700 -300 Descending New York Center
04:54PM 41.9550 -77.6567 100° East 220 253 10,500 -240 Descending New York Center
04:55PM 41.9464 -77.5889 95° East 220 253 10,300 -240 Descending New York Center
04:56PM 41.9406 -77.5075 94° East 220 253 10,100 -240 Descending New York Center
04:57PM 41.9367 -77.4289 98° East 220 253 9,900 -240 Descending New York Center
04:58PM 41.9286 -77.3500 95° East 220 253 9,700 -240 Descending New York Center
04:59PM 41.9242 -77.2772 96° East 213 245 9,500 -240 Descending New York Center
05:00PM 41.9181 -77.2014 95° East 208 239 9,300 -300 Descending New York Center
05:01PM 41.9133 -77.1311 98° East 198 228 9,000 -300 Descending New York Center
05:02PM 41.9050 -77.0522 96° East 198 228 8,800 -300 Descending New York Center
05:03PM 41.9003 -76.9878 96° East 192 221 8,500 -240 Descending New York Center
05:04PM 41.8953 -76.9203 98° East 186 214 8,400 -180 Descending New York Center
05:05PM 41.8883 -76.8558 97° East 180 207 8,200 -300 Descending New York Center
05:06PM 41.8831 -76.7939 97° East 175 201 7,900 -300 Descending New York Center
05:07PM 41.8778 -76.7322 96° East 175 201 7,700 -300 Descending New York Center
05:08PM 41.8728 -76.6675 97° East 175 201 7,400 -360 Descending New York Center
05:16PM 41.8188 -76.1068 97° East  Level FlightAware Approximate
05:17PM 41.8122 -76.0306 97° East  Level FlightAware Approximate
05:18PM 41.8056 -75.9544 97° East  Level FlightAware Approximate
05:19PM 41.7989 -75.8782 97° East  Level FlightAware Approximate
05:20PM 41.7922 -75.8021 97° East  Level FlightAware Approximate
05:21PM 41.7854 -75.7259 97° East  Level FlightAware Approximate
05:22PM 41.7786 -75.6498 97° East  Level FlightAware Approximate
05:23PM 41.7717 -75.5737 97° East  Level FlightAware Approximate
05:24PM 41.7648 -75.4976 97° East  Level FlightAware Approximate
05:25PM 41.7578 -75.4215 97° East  Level FlightAware Approximate
05:26PM 41.7508 -75.3454 97° East  Level FlightAware Approximate
05:27PM 41.7437 -75.2694 97° East  Level FlightAware Approximate
05:28PM 41.7366 -75.1934 101° East  Level FlightAware Approximate
05:29PM 41.7261 -75.1184 95° East  Level FlightAware Approximate
05:30PM 41.7208 -75.0421 96° East  Level FlightAware Approximate
05:31PM 41.7153 -74.9672 96° East  Level FlightAware Approximate
05:32PM 41.7093 -74.8910 102° East  Level Estimated
05:33PM 41.7087 -74.8871 96° East  Level FlightAware Approximate
05:34PM 41.7029 -74.8109 96° East  Level Estimated